Time;durP1;ratioP1;P1;durP2;ratioP2;P2;SDS_P1;SDS_P2;PMS_P1;PMS_P2;Temp;Humidity;BMP_temperature;BMP_pressure;BME280_temperature;BME280_humidity;BME280_pressure;Samples;Min_cycle;Max_cycle;Signal;HPM_P1;HPM_P2
2021/05/17 00:02:43;;;;;;;7.10;5.48;;;;;;;9.48;74.70;98670.20;235126;1174;114879;-66
2021/05/17 00:07:47;;;;;;;6.68;6.15;;;;;;;9.40;74.64;98670.69;234955;1174;115244;-66
2021/05/17 00:12:51;;;;;;;6.67;6.10;;;;;;;9.28;73.64;98662.86;233895;1174;114874;-66
2021/05/17 00:17:55;;;;;;;7.33;6.63;;;;;;;9.16;73.99;98658.77;233428;1174;114696;-67
2021/05/17 00:22:59;;;;;;;8.17;6.73;;;;;;;9.08;74.23;98660.83;232942;1170;114896;-67
2021/05/17 00:28:03;;;;;;;6.60;5.80;;;;;;;8.99;74.37;98662.32;233373;1170;114469;-66
2021/05/17 00:33:07;;;;;;;11.73;6.00;;;;;;;8.83;73.70;98667.73;233743;1174;115403;-66
2021/05/17 00:38:11;;;;;;;7.35;5.48;;;;;;;8.68;74.06;98660.38;233666;1174;115683;-67
2021/05/17 00:43:20;;;;;;;6.60;5.93;;;;;;;8.68;74.98;98657.73;232542;1167;115066;-67
2021/05/17 00:48:24;;;;;;;10.10;6.45;;;;;;;8.71;74.89;98662.55;232987;1174;115512;-66
2021/05/17 00:53:28;;;;;;;6.37;5.27;;;;;;;8.68;75.28;98661.19;233080;1174;116333;-65
2021/05/17 00:58:32;;;;;;;5.68;4.95;;;;;;;8.58;75.15;98660.25;232717;1174;116278;-66
2021/05/17 01:03:36;;;;;;;7.55;6.75;;;;;;;8.56;74.38;98667.70;233333;1174;116762;-65
2021/05/17 01:08:58;;;;;;;7.33;6.60;;;;;;;8.52;75.41;98661.27;232663;1174;115493;-67
2021/05/17 01:14:05;;;;;;;7.43;6.63;;;;;;;8.42;75.05;98653.97;232662;1174;115794;-66
2021/05/17 01:19:12;;;;;;;6.30;5.80;;;;;;;8.37;74.85;98660.02;233426;1174;116521;-65
2021/05/17 01:24:16;;;;;;;7.03;6.00;;;;;;;8.32;74.82;98646.67;232640;1174;115516;-65
2021/05/17 01:29:20;;;;;;;8.73;6.70;;;;;;;8.29;75.47;98647.13;232616;1174;116875;-66
2021/05/17 01:34:24;;;;;;;6.93;5.95;;;;;;;8.30;75.93;98640.77;233431;1176;116080;-66
2021/05/17 01:39:32;;;;;;;7.65;6.15;;;;;;;8.26;75.58;98642.31;232930;1174;115476;-66
2021/05/17 01:44:39;;;;;;;8.40;7.10;;;;;;;8.24;75.42;98644.44;232771;1174;116216;-65
2021/05/17 01:49:44;;;;;;;11.90;6.37;;;;;;;8.21;75.03;98639.61;234744;1174;115388;-66
2021/05/17 01:54:49;;;;;;;8.00;6.13;;;;;;;8.07;74.75;98651.62;235141;1174;114689;-66
2021/05/17 01:59:52;;;;;;;6.93;5.90;;;;;;;7.93;75.43;98645.07;235205;1174;115305;-66
2021/05/17 02:04:57;;;;;;;7.20;6.40;;;;;;;7.88;74.63;98644.99;235070;1174;114514;-66
2021/05/17 02:10:04;;;;;;;7.83;5.83;;;;;;;7.87;74.79;98646.84;234186;1174;115172;-66
2021/05/17 02:15:08;;;;;;;8.13;6.50;;;;;;;7.90;75.88;98634.94;234323;1174;116222;-66
2021/05/17 02:20:17;;;;;;;5.75;5.25;;;;;;;7.91;75.47;98649.81;233283;1174;116124;-66
2021/05/17 02:25:21;;;;;;;8.27;6.33;;;;;;;7.87;75.57;98644.19;232705;1174;116087;-66
2021/05/17 02:30:30;;;;;;;8.03;6.25;;;;;;;7.82;75.22;98653.92;233177;1174;114990;-66
2021/05/17 02:35:35;;;;;;;9.68;4.80;;;;;;;7.74;74.89;98658.58;232583;1173;115728;-66
2021/05/17 02:40:40;;;;;;;8.75;7.95;;;;;;;7.76;75.67;98659.14;232526;1174;116196;-66
2021/05/17 02:45:44;;;;;;;7.18;6.45;;;;;;;7.88;76.48;98658.26;233100;1174;115600;-66
2021/05/17 02:50:48;;;;;;;9.90;8.27;;;;;;;8.00;76.93;98648.33;232733;1170;116327;-66
2021/05/17 02:55:55;;;;;;;9.40;8.50;;;;;;;8.11;77.05;98658.86;232719;1174;115527;-66
2021/05/17 03:01:28;;;;;;;11.20;8.80;;;;;;;8.28;76.46;98657.99;233344;1174;116030;-66
2021/05/17 03:06:34;;;;;;;11.85;8.83;;;;;;;8.34;76.55;98657.05;232702;1174;115549;-65
2021/05/17 03:11:51;;;;;;;11.03;8.77;;;;;;;8.33;75.77;98664.21;232512;1174;115739;-65
2021/05/17 03:16:59;;;;;;;10.87;8.80;;;;;;;8.41;75.84;98662.98;233197;1174;115636;-66
2021/05/17 03:22:04;;;;;;;9.03;8.05;;;;;;;8.49;76.83;98675.04;232461;1174;115189;-66
2021/05/17 03:27:19;;;;;;;14.73;11.83;;;;;;;8.58;76.15;98677.00;232713;1174;115190;-66
2021/05/17 03:32:25;;;;;;;14.30;9.80;;;;;;;8.66;76.60;98675.77;232696;1174;115484;-66
2021/05/17 03:37:30;;;;;;;11.60;9.60;;;;;;;8.74;76.82;98676.14;233281;1174;115764;-66
2021/05/17 03:42:33;;;;;;;12.95;9.83;;;;;;;8.86;77.15;98681.33;234460;1174;115045;-66
2021/05/17 03:47:38;;;;;;;13.50;9.23;;;;;;;8.83;76.31;98692.45;233061;1174;114988;-67
2021/05/17 03:52:41;;;;;;;17.93;10.88;;;;;;;8.94;76.70;98698.67;234294;1174;114656;-66
2021/05/17 03:57:45;;;;;;;13.15;10.38;;;;;;;9.03;76.34;98700.64;233299;1174;115333;-66
2021/05/17 04:02:50;;;;;;;13.13;10.90;;;;;;;9.21;76.86;98696.02;234773;1174;115491;-67
2021/05/17 04:08:08;;;;;;;9.70;7.90;;;;;;;9.75;76.23;98697.59;235106;1174;115379;-66
2021/05/17 04:18:23;;;;;;;11.40;8.03;;;;;;;13.61;73.14;98716.46;232541;1174;115471;-65
2021/05/17 04:23:29;;;;;;;11.33;7.37;;;;;;;15.67;71.30;98716.30;233607;1174;115415;-66
2021/05/17 04:28:35;;;;;;;12.53;7.20;;;;;;;15.83;69.99;98717.66;233861;1174;115014;-66
2021/05/17 04:33:39;;;;;;;7.75;6.50;;;;;;;15.57;69.01;98724.53;233347;1174;115980;-67
2021/05/17 04:38:42;;;;;;;10.53;6.13;;;;;;;16.06;67.83;98726.69;232473;1173;115112;-65
2021/05/17 04:43:45;;;;;;;8.93;6.70;;;;;;;17.06;65.63;98700.05;233545;1174;115477;-65
2021/05/17 04:48:51;;;;;;;10.20;6.85;;;;;;;16.63;65.59;98686.10;233379;1174;116031;-65
2021/05/17 04:53:56;;;;;;;9.23;7.30;;;;;;;17.35;64.22;98680.83;232405;1174;116307;-66
2021/05/17 04:59:00;;;;;;;8.87;6.80;;;;;;;19.04;62.44;98692.33;232800;1174;117981;-64
2021/05/17 05:04:04;;;;;;;7.20;6.43;;;;;;;19.59;60.99;98705.27;233364;1176;117680;-64
2021/05/17 05:09:08;;;;;;;8.67;6.27;;;;;;;22.11;57.40;98712.59;232600;1174;116473;-67
2021/05/17 05:14:11;;;;;;;8.18;6.28;;;;;;;26.15;52.77;98716.38;233222;1170;116625;-67
2021/05/17 05:19:14;;;;;;;9.25;6.50;;;;;;;29.14;48.79;98727.21;232497;1176;116249;-68
2021/05/17 05:24:17;;;;;;;7.08;5.30;;;;;;;31.24;45.29;98716.70;233089;1173;116323;-67
2021/05/17 05:34:27;;;;;;;3.78;3.48;;;;;;;31.89;42.23;98714.51;233109;1174;115013;-70
2021/05/17 05:39:29;;;;;;;5.53;3.40;;;;;;;29.68;40.10;98708.28;232343;1174;115732;-71
2021/05/17 05:44:39;;;;;;;4.53;2.50;;;;;;;31.06;39.23;98697.45;233337;1174;115782;-73
2021/05/17 05:49:44;;;;;;;4.57;2.50;;;;;;;32.93;37.94;98712.63;233053;1174;116230;-70
2021/05/17 05:54:49;;;;;;;2.50;2.30;;;;;;;33.82;36.13;98706.91;232473;1174;116468;-70
2021/05/17 05:59:53;;;;;;;2.50;2.03;;;;;;;33.07;35.35;98707.72;235180;1174;116257;-71
2021/05/17 06:04:57;;;;;;;2.48;1.95;;;;;;;32.00;35.23;98707.77;235215;1174;115303;-71
2021/05/17 06:10:01;;;;;;;2.60;1.80;;;;;;;32.47;34.55;98708.24;233506;1174;115329;-71
2021/05/17 06:15:07;;;;;;;2.16;1.96;;;;;;;32.07;33.48;98717.97;232622;1174;115340;-71
2021/05/17 06:20:15;;;;;;;4.53;2.80;;;;;;;30.96;34.06;98716.73;233047;1174;115942;-70
2021/05/17 06:25:19;;;;;;;2.47;2.17;;;;;;;29.88;33.67;98698.55;234351;1173;114857;-68
2021/05/17 06:30:24;;;;;;;;;;;;;;;29.47;34.11;98711.73;233013;1174;115547;-69
2021/05/17 06:35:33;;;;;;;1.40;1.30;;;;;;;28.48;35.02;98707.10;233174;1174;103261;-69
2021/05/17 06:40:37;;;;;;;2.47;1.70;;;;;;;27.68;35.61;98714.09;232931;1174;115484;-69
2021/05/17 06:45:45;;;;;;;1.40;1.00;;;;;;;26.81;36.11;98706.98;232896;1174;116418;-71
2021/05/17 06:50:48;;;;;;;2.53;1.50;;;;;;;26.27;36.62;98705.30;233118;1174;116230;-71
2021/05/17 07:01:00;;;;;;;2.07;0.97;;;;;;;24.49;37.57;98700.67;232693;1174;116473;-69
2021/05/17 07:06:06;;;;;;;1.13;1.00;;;;;;;24.64;38.22;98690.92;232708;1174;118361;-68
2021/05/17 07:16:31;;;;;;;1.45;1.05;;;;;;;26.12;38.30;98685.12;232716;1174;115639;-67
2021/05/17 07:26:56;;;;;;;1.80;1.70;;;;;;;26.83;37.99;98702.73;232353;1174;116011;-67
2021/05/17 07:31:59;;;;;;;3.27;2.10;;;;;;;26.94;38.28;98705.60;232725;1174;115787;-68
2021/05/17 07:37:07;;;;;;;1.30;1.20;;;;;;;26.97;37.98;98704.90;232434;1174;115538;-66
2021/05/17 07:42:11;;;;;;;2.68;1.55;;;;;;;26.31;38.26;98700.69;233271;1174;115080;-66
2021/05/17 07:47:15;;;;;;;1.60;0.90;;;;;;;26.11;38.75;98689.00;233743;1174;114649;-66
2021/05/17 07:52:18;;;;;;;2.90;1.70;;;;;;;25.94;38.04;98677.77;233705;1174;115285;-65
2021/05/17 07:57:21;;;;;;;1.00;0.80;;;;;;;25.71;37.84;98675.77;233215;1174;115865;-68
2021/05/17 08:02:25;;;;;;;0.85;0.78;;;;;;;25.66;39.99;98656.19;233241;1174;115959;-68
2021/05/17 08:07:29;;;;;;;4.73;0.80;;;;;;;25.82;39.97;98660.39;233819;1174;115819;-69
2021/05/17 08:12:35;;;;;;;1.53;1.23;;;;;;;25.82;39.66;98665.85;234832;1174;115363;-67
2021/05/17 08:17:39;;;;;;;1.63;0.78;;;;;;;25.09;38.99;98646.80;234470;1171;115418;-69
2021/05/17 08:22:42;;;;;;;2.23;1.00;;;;;;;25.18;39.62;98667.27;233045;1174;115445;-71
2021/05/17 08:27:46;;;;;;;1.70;1.00;;;;;;;25.36;40.68;98662.20;234152;1174;115049;-72
2021/05/17 08:32:49;;;;;;;2.55;1.10;;;;;;;25.72;41.28;98674.61;234176;1174;115607;-70
2021/05/17 08:37:52;;;;;;;2.00;1.07;;;;;;;25.89;41.24;98664.41;233012;1174;115338;-73
2021/05/17 08:42:55;;;;;;;1.43;1.07;;;;;;;25.78;39.84;98664.20;233238;1174;116015;-72
2021/05/17 08:48:00;;;;;;;1.20;1.20;;;;;;;25.57;39.60;98661.03;233127;1176;117017;-73
2021/05/17 08:53:04;;;;;;;;;;;;;;;25.10;39.36;98660.07;232601;1174;116185;-71
2021/05/17 08:58:08;;;;;;;2.15;1.73;;;;;;;24.51;39.88;98649.35;233806;1174;103138;-71
2021/05/17 09:03:12;;;;;;;1.40;1.30;;;;;;;23.99;39.43;98652.31;233278;1174;117018;-68
2021/05/17 09:08:18;;;;;;;3.17;1.30;;;;;;;23.46;40.06;98659.80;232840;1176;115989;-68
2021/05/17 09:13:21;;;;;;;1.35;1.25;;;;;;;23.05;41.03;98656.29;232448;1176;115973;-68
2021/05/17 09:18:32;;;;;;;2.18;1.55;;;;;;;22.61;41.39;98651.80;232581;1175;117367;-68
2021/05/17 09:23:38;;;;;;;1.70;1.60;;;;;;;22.14;42.14;98663.07;232460;1170;116912;-67
2021/05/17 09:28:53;;;;;;;1.37;1.30;;;;;;;21.71;43.14;98656.14;232861;1175;117264;-68
2021/05/17 09:34:01;;;;;;;3.15;1.40;;;;;;;21.53;43.59;98656.64;233987;1175;116366;-66
2021/05/17 09:39:17;;;;;;;3.93;1.20;;;;;;;21.78;43.96;98655.60;232736;1174;116047;-64
2021/05/17 09:44:23;;;;;;;1.60;1.50;;;;;;;22.73;43.75;98647.14;233448;1169;115196;-65
2021/05/17 09:49:39;;;;;;;2.35;1.38;;;;;;;22.87;43.08;98652.26;233899;1174;114908;-66
2021/05/17 09:54:50;;;;;;;1.30;0.90;;;;;;;22.64;43.01;98649.17;232853;1174;215473;-65
2021/05/17 09:59:56;;;;;;;1.75;1.10;;;;;;;22.29;43.03;98640.71;232398;1175;117091;-67
2021/05/17 10:05:27;;;;;;;0.60;0.60;;;;;;;22.25;43.13;98647.15;233436;1174;116972;-66
2021/05/17 10:10:33;;;;;;;1.67;1.30;;;;;;;22.26;43.28;98641.38;233000;1174;115885;-66
2021/05/17 10:15:36;;;;;;;2.98;1.35;;;;;;;22.23;43.22;98633.12;234996;1174;115061;-67
2021/05/17 10:20:47;;;;;;;1.10;0.73;;;;;;;22.12;43.30;98630.84;235218;1174;118478;-67
2021/05/17 10:25:52;;;;;;;1.00;0.80;;;;;;;22.08;43.86;98631.84;235192;1174;116082;-70
2021/05/17 10:31:10;;;;;;;2.83;0.87;;;;;;;22.04;43.57;98639.07;233881;1175;115581;-70
2021/05/17 10:36:14;;;;;;;1.30;1.20;;;;;;;21.87;43.64;98639.24;232475;1174;115813;-67
2021/05/17 10:41:32;;;;;;;1.13;1.00;;;;;;;21.82;44.28;98641.03;232696;1176;116300;-66
2021/05/17 10:46:41;;;;;;;2.20;1.48;;;;;;;21.90;44.09;98642.08;233360;1174;115921;-65
2021/05/17 10:52:05;;;;;;;2.33;1.07;;;;;;;21.84;43.47;98641.50;232828;1174;115628;-65
2021/05/17 10:57:19;;;;;;;1.18;0.85;;;;;;;21.64;44.34;98645.06;233079;1174;115750;-67
2021/05/17 11:02:26;;;;;;;0.83;0.83;;;;;;;21.50;44.72;98641.84;233160;1174;115401;-67
2021/05/17 11:07:48;;;;;;;0.80;0.80;;;;;;;21.32;44.49;98643.13;233164;1174;115794;-66
2021/05/17 11:12:58;;;;;;;3.13;0.95;;;;;;;20.85;44.67;98657.60;232487;1174;115757;-68
2021/05/17 11:18:16;;;;;;;3.83;1.55;;;;;;;20.43;45.50;98661.36;232577;1174;115433;-67
2021/05/17 11:23:22;;;;;;;4.10;1.03;;;;;;;20.19;46.45;98665.38;232490;1175;115633;-67
2021/05/17 11:28:37;;;;;;;1.73;1.63;;;;;;;19.95;47.49;98680.57;232454;1174;115277;-68
2021/05/17 11:33:53;;;;;;;11.93;2.28;;;;;;;19.64;48.63;98681.58;233034;1174;115504;-67
2021/05/17 11:39:18;;;;;;;1.90;1.70;;;;;;;19.40;49.49;98692.84;233001;1174;115250;-67
2021/05/17 11:44:24;;;;;;;1.68;1.35;;;;;;;19.09;50.45;98694.89;233212;1174;115229;-68
2021/05/17 11:49:27;;;;;;;;;;;;;;;18.77;51.67;98699.59;233195;1174;115398;-67
2021/05/17 11:54:42;;;;;;;3.90;2.23;;;;;;;18.47;52.75;98700.41;234603;1174;103684;-68
2021/05/17 11:59:50;;;;;;;3.77;1.83;;;;;;;18.35;53.83;98700.98;233183;1176;116427;-67
2021/05/17 12:04:54;;;;;;;2.13;1.93;;;;;;;18.30;54.47;98689.55;232826;1176;115982;-67
2021/05/17 12:09:58;;;;;;;3.70;2.97;;;;;;;18.42;54.93;98681.65;233476;1174;114894;-66
2021/05/17 12:15:08;;;;;;;3.83;1.43;;;;;;;18.30;54.52;98689.55;233659;1174;116152;-67
2021/05/17 12:20:15;;;;;;;2.93;1.63;;;;;;;18.09;55.54;98690.06;234708;1174;115207;-67
2021/05/17 12:25:23;;;;;;;2.33;1.15;;;;;;;18.12;55.72;98692.15;233929;1174;116132;-66
2021/05/17 12:30:28;;;;;;;1.30;1.20;;;;;;;18.24;56.25;98683.48;235014;1174;117317;-67
2021/05/17 12:35:39;;;;;;;1.60;1.47;;;;;;;18.39;56.56;98677.67;234058;1174;115311;-67
2021/05/17 12:40:53;;;;;;;1.17;1.17;;;;;;;18.32;56.41;98677.34;234552;1171;114984;-67
2021/05/17 12:46:00;;;;;;;0.90;0.90;;;;;;;18.24;56.35;98680.80;232746;1174;115731;-68
2021/05/17 12:51:17;;;;;;;1.00;1.00;;;;;;;18.15;56.87;98679.95;232565;1174;115358;-69
2021/05/17 12:56:25;;;;;;;1.25;1.10;;;;;;;17.87;57.04;98673.92;233206;1174;115207;-68
2021/05/17 13:01:28;;;;;;;2.25;1.28;;;;;;;17.68;57.75;98684.12;233480;1174;115131;-68
2021/05/17 13:06:32;;;;;;;2.90;0.90;;;;;;;17.55;57.92;98688.42;232591;1174;115167;-68
2021/05/17 13:11:40;;;;;;;0.80;0.80;;;;;;;17.53;58.76;98692.52;233101;1176;215565;-68
2021/05/17 13:16:58;;;;;;;3.25;1.03;;;;;;;17.47;58.99;98689.94;232768;1176;116342;-68
2021/05/17 13:33:05;;;;;;;1.63;1.53;;;;;;;17.00;60.34;98690.48;232570;1174;116030;-69
2021/05/17 13:38:08;;;;;;;1.10;1.10;;;;;;;16.83;60.67;98685.70;233216;1174;116116;-72
2021/05/17 13:43:12;;;;;;;1.50;1.40;;;;;;;16.68;60.90;98686.03;233334;1174;115677;-71
2021/05/17 13:48:15;;;;;;;4.60;1.40;;;;;;;16.56;61.30;98686.49;233008;1174;116540;-71
2021/05/17 13:53:20;;;;;;;1.80;1.70;;;;;;;16.47;62.03;98677.55;232576;1175;116942;-71
2021/05/17 13:58:24;;;;;;;1.60;1.50;;;;;;;16.46;62.24;98682.13;232911;1174;116348;-72
2021/05/17 14:03:28;;;;;;;1.77;1.67;;;;;;;16.45;62.97;98691.30;233952;1174;114897;-69
2021/05/17 14:08:32;;;;;;;3.05;1.50;;;;;;;16.49;62.91;98680.73;232367;1174;116091;-72
2021/05/17 14:13:36;;;;;;;2.08;1.53;;;;;;;16.48;62.80;98682.63;234966;1174;115689;-68
2021/05/17 14:18:42;;;;;;;4.60;1.63;;;;;;;16.50;63.04;98666.19;234211;1174;115440;-66
2021/05/17 14:23:45;;;;;;;4.00;2.38;;;;;;;16.45;63.26;98652.84;234606;1174;115504;-70
2021/05/17 14:28:49;;;;;;;2.68;2.05;;;;;;;16.46;63.18;98649.84;235046;1174;115987;-69
2021/05/17 14:33:52;;;;;;;1.60;1.50;;;;;;;16.41;63.06;98649.95;234967;1174;115430;-71
2021/05/17 14:38:55;;;;;;;3.18;1.70;;;;;;;16.28;63.18;98650.73;234192;1174;115612;-70
2021/05/17 14:43:58;;;;;;;2.57;1.80;;;;;;;16.16;63.51;98661.19;233800;1173;115655;-68
2021/05/17 14:49:02;;;;;;;1.83;1.73;;;;;;;16.05;64.03;98659.77;233452;1174;116413;-68
2021/05/17 14:54:07;;;;;;;1.70;1.60;;;;;;;16.00;64.27;98659.86;233903;1174;114948;-69
2021/05/17 14:59:11;;;;;;;2.03;1.70;;;;;;;15.97;64.45;98674.69;234324;1174;137510;-70
2021/05/17 15:04:14;;;;;;;3.45;2.30;;;;;;;15.89;64.90;98672.70;234133;1174;115170;-66
2021/05/17 15:09:17;;;;;;;2.13;2.00;;;;;;;15.88;65.30;98681.05;232986;1175;116524;-68
2021/05/17 15:14:20;;;;;;;1.95;1.85;;;;;;;15.81;65.75;98676.84;232942;1174;115209;-68
2021/05/17 15:19:24;;;;;;;3.07;2.20;;;;;;;15.81;65.65;98684.91;232878;1176;115818;-68
2021/05/17 15:24:31;;;;;;;1.68;1.58;;;;;;;15.71;65.75;98701.19;232431;1174;115507;-68
2021/05/17 15:29:34;;;;;;;2.23;1.80;;;;;;;15.61;65.94;98704.03;232523;1174;115939;-68
2021/05/17 15:34:39;;;;;;;2.40;2.20;;;;;;;15.56;66.13;98709.50;232943;1174;116270;-68
2021/05/17 15:39:45;;;;;;;;;;;;;;;15.51;66.24;98714.91;232636;1174;115819;-68
2021/05/17 15:44:48;;;;;;;0.80;0.80;;;;;;;15.21;66.29;98710.78;233989;1174;103807;-69
2021/05/17 15:49:51;;;;;;;1.80;1.70;;;;;;;15.04;66.47;98716.63;232472;1173;115753;-68
2021/05/17 15:54:54;;;;;;;5.18;1.53;;;;;;;14.81;66.44;98722.83;232424;1167;115526;-68
2021/05/17 15:59:56;;;;;;;1.10;1.10;;;;;;;14.59;66.83;98725.24;232787;1174;117362;-69
2021/05/17 16:04:59;;;;;;;1.93;1.83;;;;;;;14.46;67.31;98738.23;234306;1173;115487;-69
2021/05/17 16:10:04;;;;;;;2.07;1.37;;;;;;;14.31;67.47;98746.42;233443;1174;115242;-70
2021/05/17 16:15:13;;;;;;;1.90;1.78;;;;;;;14.31;67.75;98742.94;233515;1170;115715;-68
2021/05/17 16:25:38;;;;;;;3.20;2.68;;;;;;;14.36;68.37;98737.53;235037;1174;114964;-70
2021/05/17 16:30:41;;;;;;;1.98;1.88;;;;;;;14.24;68.23;98740.58;235175;1174;115261;-70
2021/05/17 16:35:46;;;;;;;2.55;1.50;;;;;;;14.10;67.98;98736.95;233250;1174;115954;-72
2021/05/17 16:41:09;;;;;;;1.57;1.47;;;;;;;13.93;68.63;98736.57;232336;1174;115087;-71
2021/05/17 16:46:16;;;;;;;4.08;2.25;;;;;;;13.88;68.67;98742.77;235025;1174;115766;-70
2021/05/17 16:51:18;;;;;;;1.17;1.17;;;;;;;13.70;68.57;98754.97;234611;1168;115303;-67
2021/05/17 16:56:22;;;;;;;2.40;1.53;;;;;;;13.68;68.85;98764.36;232328;1174;117110;-70
2021/05/17 17:01:26;;;;;;;2.18;1.33;;;;;;;13.68;69.02;98754.44;233677;1173;116270;-68
2021/05/17 17:06:33;;;;;;;4.23;2.03;;;;;;;13.65;69.02;98771.06;233254;1174;116901;-67
2021/05/17 17:11:42;;;;;;;1.33;1.23;;;;;;;13.64;70.00;98777.50;232525;1174;115808;-69
2021/05/17 17:16:49;;;;;;;1.65;1.55;;;;;;;13.63;69.49;98770.54;233309;1174;115704;-70
2021/05/17 17:21:54;;;;;;;2.30;2.20;;;;;;;13.48;69.17;98771.42;232634;1175;116995;-70
2021/05/17 17:27:01;;;;;;;4.90;3.55;;;;;;;13.44;69.91;98778.43;232935;1174;117614;-68
2021/05/17 17:32:09;;;;;;;4.65;2.75;;;;;;;13.44;69.93;98767.72;233011;1174;115799;-68
2021/05/17 17:37:13;;;;;;;3.27;2.50;;;;;;;13.43;70.71;98760.77;232671;1174;116656;-67
2021/05/17 17:42:16;;;;;;;3.05;2.75;;;;;;;13.41;70.16;98751.41;232464;1174;115549;-67
2021/05/17 17:47:20;;;;;;;3.33;2.95;;;;;;;13.32;70.59;98743.16;232512;1176;116889;-68
2021/05/17 17:52:24;;;;;;;2.77;2.57;;;;;;;13.28;70.75;98749.33;232527;1174;115745;-69
2021/05/17 17:57:27;;;;;;;2.60;2.48;;;;;;;13.21;70.94;98730.09;232444;1174;116499;-67
2021/05/17 18:02:31;;;;;;;4.90;1.80;;;;;;;13.15;70.91;98707.88;232669;1176;115944;-68
2021/05/17 18:07:36;;;;;;;2.65;2.03;;;;;;;13.11;70.90;98704.18;233171;1174;116819;-68
2021/05/17 18:12:44;;;;;;;5.10;2.17;;;;;;;13.08;70.78;98712.75;233660;1174;116785;-69
2021/05/17 18:17:49;;;;;;;3.10;2.87;;;;;;;13.00;70.93;98707.97;234286;1170;115179;-67
2021/05/17 18:22:53;;;;;;;2.53;2.25;;;;;;;12.97;71.00;98714.67;235030;1174;115614;-68
2021/05/17 18:27:59;;;;;;;2.18;2.08;;;;;;;12.98;71.24;98715.47;233167;1174;115814;-69
2021/05/17 18:33:05;;;;;;;3.63;2.58;;;;;;;12.94;71.47;98723.24;235060;1174;137351;-70
2021/05/17 18:38:09;;;;;;;2.45;2.00;;;;;;;12.93;71.86;98716.29;233589;1174;115606;-68
2021/05/17 18:43:16;;;;;;;2.77;2.03;;;;;;;12.93;71.29;98724.31;235226;1174;114817;-68
2021/05/17 18:48:23;;;;;;;2.45;2.25;;;;;;;12.91;71.08;98720.31;234934;1174;115447;-69
2021/05/17 18:53:27;;;;;;;6.00;2.37;;;;;;;12.89;71.57;98731.28;233433;1174;115329;-69
2021/05/17 18:58:30;;;;;;;2.57;2.37;;;;;;;12.85;71.28;98730.23;234078;1174;115734;-69
2021/05/17 19:03:36;;;;;;;8.83;3.90;;;;;;;12.82;71.82;98725.45;234606;1174;115969;-67
2021/05/17 19:08:42;;;;;;;8.10;3.15;;;;;;;12.84;71.95;98727.86;232976;1174;117364;-67
2021/05/17 19:13:46;;;;;;;4.20;3.13;;;;;;;12.82;72.25;98722.78;232804;1174;116870;-67
2021/05/17 19:18:51;;;;;;;3.68;2.93;;;;;;;12.80;72.12;98727.59;233111;1174;116488;-67
2021/05/17 19:23:55;;;;;;;3.55;3.20;;;;;;;12.71;72.28;98735.38;232888;1174;116591;-68
2021/05/17 19:28:59;;;;;;;8.03;2.87;;;;;;;12.70;72.39;98719.61;232655;1174;115467;-68
2021/05/17 19:34:04;;;;;;;4.37;3.33;;;;;;;12.61;72.20;98724.70;232869;1174;115478;-68
2021/05/17 19:39:09;;;;;;;4.50;3.83;;;;;;;12.46;72.42;98724.77;232973;1174;115532;-68
2021/05/17 19:44:11;;;;;;;9.43;5.90;;;;;;;12.42;72.83;98721.83;232543;1174;115183;-68
2021/05/17 19:49:15;;;;;;;7.50;6.58;;;;;;;12.48;73.10;98712.73;232909;1174;116426;-67
2021/05/17 19:54:18;;;;;;;5.85;3.65;;;;;;;12.54;73.20;98720.70;233699;1174;137840;-67
2021/05/17 19:59:21;;;;;;;2.43;2.23;;;;;;;12.54;73.15;98720.70;232812;1174;116280;-68
2021/05/17 20:04:25;;;;;;;2.40;2.20;;;;;;;12.46;72.74;98722.09;232834;1174;116018;-67
2021/05/17 20:09:31;;;;;;;3.83;3.23;;;;;;;12.35;73.28;98723.17;233501;1174;115836;-68
2021/05/17 20:14:35;;;;;;;2.87;2.63;;;;;;;12.28;73.38;98728.80;233774;1174;116084;-69
2021/05/17 20:19:38;;;;;;;2.63;2.43;;;;;;;12.29;73.53;98714.36;233937;1174;116870;-70
2021/05/17 20:24:41;;;;;;;4.37;2.80;;;;;;;12.35;73.89;98715.96;233587;1174;117433;-68
2021/05/17 20:29:45;;;;;;;4.03;2.83;;;;;;;12.34;73.66;98719.70;232792;1174;116491;-67
2021/05/17 20:40:12;;;;;;;3.53;3.23;;;;;;;12.35;73.53;98710.61;235149;1174;116815;-67
2021/05/17 20:45:16;;;;;;;3.93;2.80;;;;;;;12.35;74.04;98713.28;235247;1176;115916;-72
2021/05/17 20:50:19;;;;;;;3.13;2.90;;;;;;;12.41;73.91;98700.72;233674;1174;118940;-70
2021/05/17 20:55:23;;;;;;;3.50;3.17;;;;;;;12.43;73.77;98688.69;233030;1174;116326;-69
2021/05/17 21:00:29;;;;;;;4.70;3.48;;;;;;;12.40;73.74;98678.53;233995;1172;115272;-69
2021/05/17 21:05:34;;;;;;;7.83;6.17;;;;;;;12.36;73.75;98680.14;232640;1174;116203;-68
2021/05/17 21:10:37;;;;;;;12.70;9.18;;;;;;;12.34;73.74;98679.62;232727;1175;116572;-69
2021/05/17 21:15:41;;;;;;;6.93;6.03;;;;;;;12.27;73.90;98671.08;232598;1174;116819;-67
2021/05/17 21:20:48;;;;;;;7.03;5.28;;;;;;;12.22;73.84;98673.79;233190;1174;115880;-67
2021/05/17 21:25:53;;;;;;;5.35;4.30;;;;;;;12.19;73.80;98684.22;233105;1174;115332;-67
2021/05/17 21:30:57;;;;;;;4.43;3.33;;;;;;;12.14;74.08;98688.49;232370;1174;115799;-67
2021/05/17 21:36:01;;;;;;;3.87;2.83;;;;;;;12.10;73.75;98702.66;233129;1174;116841;-65
2021/05/17 21:41:06;;;;;;;5.53;3.43;;;;;;;12.08;74.17;98716.28;232553;1174;116191;-67
2021/05/17 21:46:11;;;;;;;3.77;3.43;;;;;;;12.10;74.55;98706.13;233353;1174;115309;-66
2021/05/17 21:51:15;;;;;;;14.15;2.95;;;;;;;12.08;74.26;98704.80;233224;1174;115155;-68
2021/05/17 21:56:19;;;;;;;5.93;2.73;;;;;;;12.07;74.13;98703.98;233213;1174;115408;-68
2021/05/17 22:01:24;;;;;;;3.73;3.53;;;;;;;12.08;74.34;98702.12;233659;1174;115568;-68
2021/05/17 22:06:39;;;;;;;4.20;3.50;;;;;;;12.06;74.57;98701.59;233141;1174;115623;-66
2021/05/17 22:11:43;;;;;;;3.85;3.10;;;;;;;12.00;73.71;98705.33;232989;1173;116097;-69
2021/05/17 22:16:48;;;;;;;3.40;2.68;;;;;;;11.95;74.33;98708.00;232876;1174;120113;-69
2021/05/17 22:21:51;;;;;;;3.60;3.40;;;;;;;11.89;73.81;98723.25;233817;1172;116396;-67
2021/05/17 22:26:55;;;;;;;5.57;3.23;;;;;;;11.85;74.42;98721.38;233659;1174;115169;-65
2021/05/17 22:31:58;;;;;;;5.47;3.60;;;;;;;11.85;74.62;98726.72;233796;1174;116039;-66
2021/05/17 22:37:00;;;;;;;6.17;4.10;;;;;;;11.85;74.70;98721.38;234741;1173;115593;-67
2021/05/17 22:42:04;;;;;;;3.73;2.78;;;;;;;11.92;74.63;98730.73;234936;1174;117062;-66
2021/05/17 22:47:08;;;;;;;2.60;2.40;;;;;;;11.94;74.43;98733.10;234965;1174;114825;-67
2021/05/17 22:52:12;;;;;;;2.10;1.98;;;;;;;11.95;74.76;98724.02;234917;1174;115192;-68
2021/05/17 22:57:15;;;;;;;2.73;2.40;;;;;;;11.97;74.60;98724.55;233837;1174;116528;-71
2021/05/17 23:02:19;;;;;;;4.40;2.30;;;;;;;11.99;74.76;98719.75;232648;1170;115508;-68
2021/05/17 23:07:23;;;;;;;7.45;4.95;;;;;;;11.96;74.62;98728.30;233060;1174;116132;-67
2021/05/17 23:12:28;;;;;;;3.93;3.40;;;;;;;11.92;74.63;98724.58;233293;1174;114656;-67
2021/05/17 23:17:32;;;;;;;3.35;3.05;;;;;;;11.85;74.61;98716.03;233126;1174;115469;-68
2021/05/17 23:22:39;;;;;;;6.45;5.30;;;;;;;11.80;74.87;98714.16;234144;1173;115772;-68
2021/05/17 23:33:08;;;;;;;16.87;10.03;;;;;;;11.74;75.03;98707.98;232932;1174;118981;-68
2021/05/17 23:38:14;;;;;;;5.90;4.38;;;;;;;11.72;74.92;98699.44;232784;1174;116397;-68
2021/05/17 23:43:17;;;;;;;4.23;3.20;;;;;;;11.70;75.16;98701.57;232868;1174;115674;-71
2021/05/17 23:48:21;;;;;;;4.43;2.87;;;;;;;11.70;75.09;98706.91;232749;1174;115415;-69
2021/05/17 23:53:25;;;;;;;4.83;2.93;;;;;;;11.66;75.55;98710.38;232744;1175;115611;-68
2021/05/17 23:58:34;;;;;;;2.85;2.63;;;;;;;11.65;75.62;98706.91;232579;1174;116138;-68
